sensor_id;sensor_type;location;lat;lon;timestamp;P1;durP1;ratioP1;P2;durP2;ratioP2
76127;SDS011;64873;50.102;14.434;2022-11-15T00:01:40;105.82;;;54.78;;
76127;SDS011;64873;50.102;14.434;2022-11-15T00:04:06;108.22;;;57.88;;
76127;SDS011;64873;50.102;14.434;2022-11-15T00:06:31;100.80;;;55.90;;
76127;SDS011;64873;50.102;14.434;2022-11-15T00:08:57;107.05;;;56.33;;
76127;SDS011;64873;50.102;14.434;2022-11-15T00:11:23;106.90;;;57.28;;
76127;SDS011;64873;50.102;14.434;2022-11-15T00:13:49;112.93;;;57.75;;
76127;SDS011;64873;50.102;14.434;2022-11-15T00:16:14;113.40;;;57.03;;
76127;SDS011;64873;50.102;14.434;2022-11-15T00:18:39;111.47;;;59.88;;
76127;SDS011;64873;50.102;14.434;2022-11-15T00:21:06;110.10;;;56.85;;
76127;SDS011;64873;50.102;14.434;2022-11-15T00:23:34;100.78;;;53.63;;
76127;SDS011;64873;50.102;14.434;2022-11-15T00:25:59;96.22;;;52.42;;
76127;SDS011;64873;50.102;14.434;2022-11-15T00:28:25;98.90;;;52.92;;
76127;SDS011;64873;50.102;14.434;2022-11-15T00:30:50;80.72;;;44.10;;
76127;SDS011;64873;50.102;14.434;2022-11-15T00:33:16;82.05;;;43.78;;
76127;SDS011;64873;50.102;14.434;2022-11-15T00:35:42;69.60;;;37.58;;
76127;SDS011;64873;50.102;14.434;2022-11-15T00:38:07;78.10;;;42.08;;
76127;SDS011;64873;50.102;14.434;2022-11-15T00:40:32;74.82;;;39.30;;
76127;SDS011;64873;50.102;14.434;2022-11-15T00:42:58;70.68;;;38.22;;
76127;SDS011;64873;50.102;14.434;2022-11-15T00:45:23;73.68;;;38.22;;
76127;SDS011;64873;50.102;14.434;2022-11-15T00:47:49;68.22;;;37.75;;
76127;SDS011;64873;50.102;14.434;2022-11-15T00:50:15;73.05;;;37.90;;
76127;SDS011;64873;50.102;14.434;2022-11-15T00:52:41;75.22;;;38.00;;
76127;SDS011;64873;50.102;14.434;2022-11-15T00:55:07;71.03;;;37.33;;
76127;SDS011;64873;50.102;14.434;2022-11-15T00:57:38;72.25;;;38.35;;
76127;SDS011;64873;50.102;14.434;2022-11-15T01:00:04;68.03;;;37.38;;
76127;SDS011;64873;50.102;14.434;2022-11-15T01:02:30;74.85;;;37.78;;
76127;SDS011;64873;50.102;14.434;2022-11-15T01:04:55;68.70;;;35.08;;
76127;SDS011;64873;50.102;14.434;2022-11-15T01:07:20;72.72;;;35.60;;
76127;SDS011;64873;50.102;14.434;2022-11-15T01:09:46;76.93;;;36.55;;
76127;SDS011;64873;50.102;14.434;2022-11-15T01:12:11;70.30;;;36.78;;
76127;SDS011;64873;50.102;14.434;2022-11-15T01:14:36;66.68;;;36.08;;
76127;SDS011;64873;50.102;14.434;2022-11-15T01:17:02;68.97;;;36.95;;
76127;SDS011;64873;50.102;14.434;2022-11-15T01:19:27;69.00;;;36.35;;
76127;SDS011;64873;50.102;14.434;2022-11-15T01:21:52;71.72;;;36.70;;
76127;SDS011;64873;50.102;14.434;2022-11-15T01:24:18;69.40;;;37.25;;
76127;SDS011;64873;50.102;14.434;2022-11-15T01:26:43;69.50;;;35.78;;
76127;SDS011;64873;50.102;14.434;2022-11-15T01:29:08;74.90;;;35.75;;
76127;SDS011;64873;50.102;14.434;2022-11-15T01:31:34;61.03;;;31.75;;
76127;SDS011;64873;50.102;14.434;2022-11-15T01:33:59;66.85;;;31.35;;
76127;SDS011;64873;50.102;14.434;2022-11-15T01:36:24;69.65;;;31.85;;
76127;SDS011;64873;50.102;14.434;2022-11-15T01:38:53;64.18;;;31.58;;
76127;SDS011;64873;50.102;14.434;2022-11-15T01:41:22;63.70;;;32.03;;
76127;SDS011;64873;50.102;14.434;2022-11-15T01:43:53;68.22;;;32.67;;
76127;SDS011;64873;50.102;14.434;2022-11-15T01:48:46;60.80;;;29.85;;
76127;SDS011;64873;50.102;14.434;2022-11-15T01:51:13;68.50;;;33.53;;
76127;SDS011;64873;50.102;14.434;2022-11-15T01:53:43;63.20;;;32.33;;
76127;SDS011;64873;50.102;14.434;2022-11-15T01:56:11;62.55;;;31.33;;
76127;SDS011;64873;50.102;14.434;2022-11-15T01:58:43;64.35;;;31.02;;
76127;SDS011;64873;50.102;14.434;2022-11-15T02:01:10;79.00;;;32.15;;
76127;SDS011;64873;50.102;14.434;2022-11-15T02:03:48;65.32;;;32.47;;
76127;SDS011;64873;50.102;14.434;2022-11-15T02:08:46;94.88;;;32.22;;
76127;SDS011;64873;50.102;14.434;2022-11-15T02:11:12;73.88;;;34.88;;
76127;SDS011;64873;50.102;14.434;2022-11-15T02:13:38;81.97;;;35.22;;
76127;SDS011;64873;50.102;14.434;2022-11-15T02:18:34;98.07;;;38.33;;
76127;SDS011;64873;50.102;14.434;2022-11-15T02:29:14;71.10;;;34.28;;
76127;SDS011;64873;50.102;14.434;2022-11-15T02:31:51;62.33;;;31.48;;
76127;SDS011;64873;50.102;14.434;2022-11-15T02:42:36;69.22;;;31.45;;
76127;SDS011;64873;50.102;14.434;2022-11-15T02:48:00;71.65;;;31.95;;
76127;SDS011;64873;50.102;14.434;2022-11-15T02:50:29;82.07;;;36.80;;
76127;SDS011;64873;50.102;14.434;2022-11-15T02:52:56;86.72;;;40.10;;
76127;SDS011;64873;50.102;14.434;2022-11-15T02:58:20;74.30;;;37.83;;
76127;SDS011;64873;50.102;14.434;2022-11-15T03:00:51;110.78;;;46.03;;
76127;SDS011;64873;50.102;14.434;2022-11-15T03:03:44;114.18;;;49.00;;
76127;SDS011;64873;50.102;14.434;2022-11-15T03:11:46;131.57;;;47.38;;
76127;SDS011;64873;50.102;14.434;2022-11-15T03:14:20;132.68;;;44.50;;
76127;SDS011;64873;50.102;14.434;2022-11-15T03:19:47;97.18;;;41.35;;
76127;SDS011;64873;50.102;14.434;2022-11-15T03:22:16;91.85;;;38.58;;
76127;SDS011;64873;50.102;14.434;2022-11-15T03:24:45;105.88;;;42.38;;
76127;SDS011;64873;50.102;14.434;2022-11-15T03:27:15;98.85;;;39.55;;
76127;SDS011;64873;50.102;14.434;2022-11-15T03:29:46;88.07;;;38.90;;
76127;SDS011;64873;50.102;14.434;2022-11-15T03:32:19;84.25;;;37.55;;
76127;SDS011;64873;50.102;14.434;2022-11-15T03:37:40;88.30;;;35.55;;
76127;SDS011;64873;50.102;14.434;2022-11-15T03:40:10;82.97;;;35.25;;
76127;SDS011;64873;50.102;14.434;2022-11-15T03:42:38;87.47;;;36.42;;
76127;SDS011;64873;50.102;14.434;2022-11-15T03:45:14;95.93;;;36.03;;
76127;SDS011;64873;50.102;14.434;2022-11-15T03:50:10;115.82;;;43.50;;
76127;SDS011;64873;50.102;14.434;2022-11-15T03:52:38;110.28;;;40.28;;
76127;SDS011;64873;50.102;14.434;2022-11-15T03:55:06;162.30;;;44.45;;
76127;SDS011;64873;50.102;14.434;2022-11-15T03:57:35;118.82;;;47.22;;
76127;SDS011;64873;50.102;14.434;2022-11-15T04:00:00;104.13;;;42.08;;
76127;SDS011;64873;50.102;14.434;2022-11-15T04:02:26;99.65;;;36.20;;
76127;SDS011;64873;50.102;14.434;2022-11-15T04:04:51;100.38;;;38.13;;
76127;SDS011;64873;50.102;14.434;2022-11-15T04:07:17;104.40;;;35.45;;
76127;SDS011;64873;50.102;14.434;2022-11-15T04:09:42;86.78;;;29.17;;
76127;SDS011;64873;50.102;14.434;2022-11-15T04:12:26;92.95;;;31.50;;
76127;SDS011;64873;50.102;14.434;2022-11-15T04:14:58;95.10;;;31.52;;
76127;SDS011;64873;50.102;14.434;2022-11-15T04:17:34;87.28;;;30.65;;
76127;SDS011;64873;50.102;14.434;2022-11-15T04:20:00;80.57;;;28.15;;
76127;SDS011;64873;50.102;14.434;2022-11-15T04:22:46;100.80;;;29.90;;
76127;SDS011;64873;50.102;14.434;2022-11-15T04:25:30;74.25;;;26.42;;
76127;SDS011;64873;50.102;14.434;2022-11-15T04:27:55;94.32;;;30.00;;
76127;SDS011;64873;50.102;14.434;2022-11-15T04:30:20;92.07;;;31.10;;
76127;SDS011;64873;50.102;14.434;2022-11-15T04:32:46;93.85;;;30.55;;
76127;SDS011;64873;50.102;14.434;2022-11-15T04:35:11;72.63;;;25.58;;
76127;SDS011;64873;50.102;14.434;2022-11-15T04:37:36;59.75;;;24.20;;
76127;SDS011;64873;50.102;14.434;2022-11-15T04:40:02;53.58;;;21.55;;
76127;SDS011;64873;50.102;14.434;2022-11-15T04:42:28;46.28;;;20.45;;
76127;SDS011;64873;50.102;14.434;2022-11-15T04:45:13;52.15;;;21.50;;
76127;SDS011;64873;50.102;14.434;2022-11-15T04:47:38;44.72;;;19.85;;
76127;SDS011;64873;50.102;14.434;2022-11-15T04:50:04;51.90;;;21.40;;
76127;SDS011;64873;50.102;14.434;2022-11-15T04:52:30;47.72;;;19.77;;
76127;SDS011;64873;50.102;14.434;2022-11-15T04:54:55;51.00;;;20.17;;
76127;SDS011;64873;50.102;14.434;2022-11-15T04:57:20;41.50;;;18.85;;
76127;SDS011;64873;50.102;14.434;2022-11-15T04:59:46;42.47;;;18.63;;
76127;SDS011;64873;50.102;14.434;2022-11-15T05:02:11;46.50;;;20.33;;
76127;SDS011;64873;50.102;14.434;2022-11-15T05:04:37;49.42;;;21.38;;
76127;SDS011;64873;50.102;14.434;2022-11-15T05:07:02;51.90;;;22.05;;
76127;SDS011;64873;50.102;14.434;2022-11-15T05:09:29;55.65;;;22.52;;
76127;SDS011;64873;50.102;14.434;2022-11-15T05:11:54;53.13;;;22.25;;
76127;SDS011;64873;50.102;14.434;2022-11-15T05:14:19;55.92;;;21.92;;
76127;SDS011;64873;50.102;14.434;2022-11-15T05:16:45;48.90;;;22.60;;
76127;SDS011;64873;50.102;14.434;2022-11-15T05:19:10;55.03;;;22.90;;
76127;SDS011;64873;50.102;14.434;2022-11-15T05:21:36;52.83;;;22.30;;
76127;SDS011;64873;50.102;14.434;2022-11-15T05:24:02;58.55;;;23.65;;
76127;SDS011;64873;50.102;14.434;2022-11-15T05:26:28;56.03;;;22.67;;
76127;SDS011;64873;50.102;14.434;2022-11-15T05:28:54;53.67;;;22.88;;
76127;SDS011;64873;50.102;14.434;2022-11-15T05:31:20;46.60;;;20.92;;
76127;SDS011;64873;50.102;14.434;2022-11-15T05:33:46;48.00;;;21.05;;
76127;SDS011;64873;50.102;14.434;2022-11-15T05:36:13;47.85;;;21.38;;
76127;SDS011;64873;50.102;14.434;2022-11-15T05:38:40;55.28;;;22.20;;
76127;SDS011;64873;50.102;14.434;2022-11-15T05:41:06;45.55;;;21.25;;
76127;SDS011;64873;50.102;14.434;2022-11-15T05:43:32;50.45;;;21.20;;
76127;SDS011;64873;50.102;14.434;2022-11-15T05:46:01;48.33;;;21.95;;
76127;SDS011;64873;50.102;14.434;2022-11-15T05:48:29;47.00;;;21.33;;
76127;SDS011;64873;50.102;14.434;2022-11-15T05:50:54;41.17;;;19.17;;
76127;SDS011;64873;50.102;14.434;2022-11-15T05:53:21;38.42;;;18.20;;
76127;SDS011;64873;50.102;14.434;2022-11-15T05:55:48;40.80;;;18.65;;
76127;SDS011;64873;50.102;14.434;2022-11-15T05:58:13;36.50;;;18.27;;
76127;SDS011;64873;50.102;14.434;2022-11-15T06:00:39;34.58;;;16.58;;
76127;SDS011;64873;50.102;14.434;2022-11-15T06:03:05;41.80;;;17.02;;
76127;SDS011;64873;50.102;14.434;2022-11-15T06:05:30;33.42;;;16.58;;
76127;SDS011;64873;50.102;14.434;2022-11-15T06:08:14;35.55;;;16.33;;
76127;SDS011;64873;50.102;14.434;2022-11-15T06:10:39;37.10;;;16.85;;
76127;SDS011;64873;50.102;14.434;2022-11-15T06:13:04;34.20;;;16.52;;
76127;SDS011;64873;50.102;14.434;2022-11-15T06:15:31;34.90;;;16.13;;
76127;SDS011;64873;50.102;14.434;2022-11-15T06:17:58;36.72;;;16.67;;
76127;SDS011;64873;50.102;14.434;2022-11-15T06:20:24;38.63;;;17.63;;
76127;SDS011;64873;50.102;14.434;2022-11-15T06:22:56;33.67;;;15.88;;
76127;SDS011;64873;50.102;14.434;2022-11-15T06:25:23;37.90;;;17.00;;
76127;SDS011;64873;50.102;14.434;2022-11-15T06:27:52;36.17;;;17.23;;
76127;SDS011;64873;50.102;14.434;2022-11-15T06:30:19;37.22;;;17.00;;
76127;SDS011;64873;50.102;14.434;2022-11-15T06:32:45;34.08;;;15.80;;
76127;SDS011;64873;50.102;14.434;2022-11-15T06:35:10;37.38;;;16.77;;
76127;SDS011;64873;50.102;14.434;2022-11-15T06:37:36;39.55;;;17.00;;
76127;SDS011;64873;50.102;14.434;2022-11-15T06:40:01;37.67;;;17.20;;
76127;SDS011;64873;50.102;14.434;2022-11-15T06:42:27;31.63;;;15.98;;
76127;SDS011;64873;50.102;14.434;2022-11-15T06:44:52;36.42;;;17.42;;
76127;SDS011;64873;50.102;14.434;2022-11-15T06:47:18;34.97;;;15.20;;
76127;SDS011;64873;50.102;14.434;2022-11-15T06:49:43;31.90;;;15.73;;
76127;SDS011;64873;50.102;14.434;2022-11-15T06:52:08;41.22;;;17.25;;
76127;SDS011;64873;50.102;14.434;2022-11-15T06:54:34;34.55;;;17.20;;
76127;SDS011;64873;50.102;14.434;2022-11-15T06:56:59;38.58;;;17.50;;
76127;SDS011;64873;50.102;14.434;2022-11-15T06:59:24;36.55;;;17.35;;
76127;SDS011;64873;50.102;14.434;2022-11-15T07:01:50;36.50;;;16.60;;
76127;SDS011;64873;50.102;14.434;2022-11-15T07:04:15;38.63;;;17.10;;
76127;SDS011;64873;50.102;14.434;2022-11-15T07:06:40;35.85;;;16.42;;
76127;SDS011;64873;50.102;14.434;2022-11-15T07:09:06;36.50;;;17.10;;
76127;SDS011;64873;50.102;14.434;2022-11-15T07:11:32;39.00;;;17.40;;
76127;SDS011;64873;50.102;14.434;2022-11-15T07:13:59;31.58;;;16.40;;
76127;SDS011;64873;50.102;14.434;2022-11-15T07:16:24;32.53;;;15.85;;
76127;SDS011;64873;50.102;14.434;2022-11-15T07:18:50;35.50;;;17.17;;
76127;SDS011;64873;50.102;14.434;2022-11-15T07:21:15;33.50;;;17.00;;
76127;SDS011;64873;50.102;14.434;2022-11-15T07:23:41;42.03;;;18.20;;
76127;SDS011;64873;50.102;14.434;2022-11-15T07:26:06;34.85;;;17.63;;
76127;SDS011;64873;50.102;14.434;2022-11-15T07:28:32;36.85;;;17.88;;
76127;SDS011;64873;50.102;14.434;2022-11-15T07:31:01;33.33;;;16.92;;
76127;SDS011;64873;50.102;14.434;2022-11-15T07:33:31;35.67;;;17.60;;
76127;SDS011;64873;50.102;14.434;2022-11-15T07:36:00;34.22;;;17.65;;
76127;SDS011;64873;50.102;14.434;2022-11-15T07:38:26;32.67;;;16.73;;
76127;SDS011;64873;50.102;14.434;2022-11-15T07:40:56;32.80;;;16.05;;
76127;SDS011;64873;50.102;14.434;2022-11-15T07:43:22;30.55;;;17.25;;
76127;SDS011;64873;50.102;14.434;2022-11-15T07:45:48;35.78;;;17.63;;
76127;SDS011;64873;50.102;14.434;2022-11-15T07:48:13;34.78;;;17.48;;
76127;SDS011;64873;50.102;14.434;2022-11-15T07:50:42;34.47;;;18.23;;
76127;SDS011;64873;50.102;14.434;2022-11-15T07:53:07;31.67;;;17.02;;
76127;SDS011;64873;50.102;14.434;2022-11-15T07:55:34;35.08;;;16.83;;
76127;SDS011;64873;50.102;14.434;2022-11-15T07:58:00;31.55;;;15.57;;
76127;SDS011;64873;50.102;14.434;2022-11-15T08:00:31;31.48;;;16.90;;
76127;SDS011;64873;50.102;14.434;2022-11-15T08:03:04;33.90;;;16.85;;
76127;SDS011;64873;50.102;14.434;2022-11-15T08:08:06;29.45;;;15.90;;
76127;SDS011;64873;50.102;14.434;2022-11-15T08:10:32;33.58;;;16.65;;
76127;SDS011;64873;50.102;14.434;2022-11-15T08:13:02;32.08;;;16.38;;
76127;SDS011;64873;50.102;14.434;2022-11-15T08:15:29;35.08;;;16.92;;
76127;SDS011;64873;50.102;14.434;2022-11-15T08:17:59;32.08;;;15.63;;
76127;SDS011;64873;50.102;14.434;2022-11-15T08:20:27;31.88;;;16.48;;
76127;SDS011;64873;50.102;14.434;2022-11-15T08:22:57;34.10;;;17.70;;
76127;SDS011;64873;50.102;14.434;2022-11-15T08:25:24;41.28;;;18.50;;
76127;SDS011;64873;50.102;14.434;2022-11-15T08:27:53;34.30;;;18.25;;
76127;SDS011;64873;50.102;14.434;2022-11-15T08:30:19;32.17;;;15.90;;
76127;SDS011;64873;50.102;14.434;2022-11-15T08:32:45;45.28;;;20.92;;
76127;SDS011;64873;50.102;14.434;2022-11-15T08:35:12;32.35;;;16.05;;
76127;SDS011;64873;50.102;14.434;2022-11-15T08:37:37;32.55;;;17.67;;
76127;SDS011;64873;50.102;14.434;2022-11-15T08:40:03;40.67;;;18.60;;
76127;SDS011;64873;50.102;14.434;2022-11-15T08:42:29;37.55;;;20.23;;
76127;SDS011;64873;50.102;14.434;2022-11-15T08:44:54;39.83;;;20.45;;
76127;SDS011;64873;50.102;14.434;2022-11-15T08:47:20;48.42;;;22.55;;
76127;SDS011;64873;50.102;14.434;2022-11-15T08:49:45;41.65;;;20.80;;
76127;SDS011;64873;50.102;14.434;2022-11-15T08:52:10;44.30;;;22.15;;
76127;SDS011;64873;50.102;14.434;2022-11-15T08:54:35;46.33;;;22.17;;
76127;SDS011;64873;50.102;14.434;2022-11-15T08:57:01;41.38;;;21.00;;
76127;SDS011;64873;50.102;14.434;2022-11-15T08:59:26;50.55;;;22.20;;
76127;SDS011;64873;50.102;14.434;2022-11-15T09:01:51;44.83;;;20.85;;
76127;SDS011;64873;50.102;14.434;2022-11-15T09:04:17;45.00;;;22.38;;
76127;SDS011;64873;50.102;14.434;2022-11-15T09:06:42;51.13;;;22.27;;
76127;SDS011;64873;50.102;14.434;2022-11-15T09:09:08;47.15;;;20.77;;
76127;SDS011;64873;50.102;14.434;2022-11-15T09:11:33;50.75;;;21.40;;
76127;SDS011;64873;50.102;14.434;2022-11-15T09:13:58;43.47;;;21.15;;
76127;SDS011;64873;50.102;14.434;2022-11-15T09:16:24;43.22;;;21.67;;
76127;SDS011;64873;50.102;14.434;2022-11-15T09:18:49;51.60;;;22.60;;
76127;SDS011;64873;50.102;14.434;2022-11-15T09:21:14;49.13;;;24.67;;
76127;SDS011;64873;50.102;14.434;2022-11-15T09:23:40;48.22;;;23.33;;
76127;SDS011;64873;50.102;14.434;2022-11-15T09:26:05;45.13;;;23.48;;
76127;SDS011;64873;50.102;14.434;2022-11-15T09:28:31;43.08;;;21.27;;
76127;SDS011;64873;50.102;14.434;2022-11-15T09:30:58;46.35;;;23.55;;
76127;SDS011;64873;50.102;14.434;2022-11-15T09:33:24;47.17;;;23.40;;
76127;SDS011;64873;50.102;14.434;2022-11-15T09:35:50;39.75;;;21.65;;
76127;SDS011;64873;50.102;14.434;2022-11-15T09:38:16;45.47;;;23.75;;
76127;SDS011;64873;50.102;14.434;2022-11-15T09:40:42;45.80;;;22.55;;
76127;SDS011;64873;50.102;14.434;2022-11-15T09:48:56;43.35;;;22.17;;
76127;SDS011;64873;50.102;14.434;2022-11-15T09:51:28;35.72;;;19.30;;
76127;SDS011;64873;50.102;14.434;2022-11-15T09:56:29;35.92;;;20.55;;
76127;SDS011;64873;50.102;14.434;2022-11-15T10:04:21;37.28;;;19.95;;
76127;SDS011;64873;50.102;14.434;2022-11-15T10:07:01;43.38;;;20.10;;
76127;SDS011;64873;50.102;14.434;2022-11-15T10:09:45;39.15;;;20.38;;
76127;SDS011;64873;50.102;14.434;2022-11-15T10:12:18;40.70;;;18.92;;
76127;SDS011;64873;50.102;14.434;2022-11-15T10:14:44;39.47;;;21.17;;
76127;SDS011;64873;50.102;14.434;2022-11-15T10:22:46;34.95;;;18.60;;
76127;SDS011;64873;50.102;14.434;2022-11-15T10:27:59;41.33;;;20.45;;
76127;SDS011;64873;50.102;14.434;2022-11-15T10:30:52;42.72;;;22.17;;
76127;SDS011;64873;50.102;14.434;2022-11-15T10:36:37;46.00;;;23.88;;
76127;SDS011;64873;50.102;14.434;2022-11-15T10:39:03;43.95;;;24.05;;
76127;SDS011;64873;50.102;14.434;2022-11-15T10:41:29;46.50;;;25.75;;
76127;SDS011;64873;50.102;14.434;2022-11-15T10:49:22;48.83;;;24.73;;
76127;SDS011;64873;50.102;14.434;2022-11-15T10:51:54;46.35;;;25.13;;
76127;SDS011;64873;50.102;14.434;2022-11-15T10:54:27;44.72;;;23.20;;
76127;SDS011;64873;50.102;14.434;2022-11-15T10:57:18;47.08;;;24.95;;
76127;SDS011;64873;50.102;14.434;2022-11-15T10:59:47;49.00;;;24.10;;
76127;SDS011;64873;50.102;14.434;2022-11-15T11:02:26;47.97;;;23.13;;
76127;SDS011;64873;50.102;14.434;2022-11-15T11:05:36;46.85;;;24.20;;
76127;SDS011;64873;50.102;14.434;2022-11-15T11:08:05;44.85;;;25.20;;
76127;SDS011;64873;50.102;14.434;2022-11-15T11:10:39;38.42;;;23.23;;
76127;SDS011;64873;50.102;14.434;2022-11-15T11:13:24;47.00;;;25.58;;
76127;SDS011;64873;50.102;14.434;2022-11-15T11:18:39;46.80;;;24.55;;
76127;SDS011;64873;50.102;14.434;2022-11-15T11:21:17;48.13;;;25.63;;
76127;SDS011;64873;50.102;14.434;2022-11-15T11:24:08;50.45;;;26.92;;
76127;SDS011;64873;50.102;14.434;2022-11-15T11:26:38;55.58;;;27.52;;
76127;SDS011;64873;50.102;14.434;2022-11-15T11:35:08;45.72;;;23.95;;
76127;SDS011;64873;50.102;14.434;2022-11-15T11:40:36;48.03;;;24.45;;
76127;SDS011;64873;50.102;14.434;2022-11-15T11:46:17;43.03;;;23.38;;
76127;SDS011;64873;50.102;14.434;2022-11-15T11:48:51;43.60;;;23.10;;
76127;SDS011;64873;50.102;14.434;2022-11-15T11:54:12;47.17;;;25.80;;
76127;SDS011;64873;50.102;14.434;2022-11-15T11:56:44;49.80;;;25.02;;
76127;SDS011;64873;50.102;14.434;2022-11-15T12:01:51;49.92;;;26.10;;
76127;SDS011;64873;50.102;14.434;2022-11-15T12:07:03;46.97;;;25.40;;
76127;SDS011;64873;50.102;14.434;2022-11-15T12:09:39;42.85;;;24.23;;
76127;SDS011;64873;50.102;14.434;2022-11-15T12:12:19;49.58;;;26.90;;
76127;SDS011;64873;50.102;14.434;2022-11-15T12:14:56;47.22;;;27.00;;
76127;SDS011;64873;50.102;14.434;2022-11-15T12:17:27;49.83;;;26.35;;
76127;SDS011;64873;50.102;14.434;2022-11-15T12:20:02;48.60;;;26.60;;
76127;SDS011;64873;50.102;14.434;2022-11-15T12:22:53;48.47;;;25.80;;
76127;SDS011;64873;50.102;14.434;2022-11-15T12:25:29;44.95;;;25.23;;
76127;SDS011;64873;50.102;14.434;2022-11-15T12:31:00;44.30;;;24.00;;
76127;SDS011;64873;50.102;14.434;2022-11-15T12:33:31;48.08;;;23.80;;
76127;SDS011;64873;50.102;14.434;2022-11-15T12:36:01;48.80;;;25.83;;
76127;SDS011;64873;50.102;14.434;2022-11-15T12:41:21;54.72;;;27.20;;
76127;SDS011;64873;50.102;14.434;2022-11-15T12:43:56;50.00;;;24.08;;
76127;SDS011;64873;50.102;14.434;2022-11-15T12:56:47;48.28;;;25.45;;
76127;SDS011;64873;50.102;14.434;2022-11-15T12:59:50;47.17;;;24.75;;
76127;SDS011;64873;50.102;14.434;2022-11-15T13:02:24;51.35;;;24.85;;
76127;SDS011;64873;50.102;14.434;2022-11-15T13:04:52;44.35;;;23.90;;
76127;SDS011;64873;50.102;14.434;2022-11-15T13:10:46;45.45;;;24.42;;
76127;SDS011;64873;50.102;14.434;2022-11-15T13:17:56;51.38;;;26.15;;
76127;SDS011;64873;50.102;14.434;2022-11-15T13:20:23;47.50;;;25.00;;
76127;SDS011;64873;50.102;14.434;2022-11-15T13:28:11;50.05;;;25.90;;
76127;SDS011;64873;50.102;14.434;2022-11-15T13:30:52;50.50;;;27.10;;
76127;SDS011;64873;50.102;14.434;2022-11-15T13:33:36;47.22;;;24.48;;
76127;SDS011;64873;50.102;14.434;2022-11-15T13:36:07;53.13;;;27.00;;
76127;SDS011;64873;50.102;14.434;2022-11-15T13:38:38;55.03;;;27.52;;
76127;SDS011;64873;50.102;14.434;2022-11-15T13:41:14;53.97;;;26.73;;
76127;SDS011;64873;50.102;14.434;2022-11-15T13:43:42;59.05;;;28.00;;
76127;SDS011;64873;50.102;14.434;2022-11-15T13:46:23;56.55;;;28.75;;
76127;SDS011;64873;50.102;14.434;2022-11-15T13:48:55;53.10;;;25.48;;
76127;SDS011;64873;50.102;14.434;2022-11-15T13:56:42;55.13;;;28.70;;
76127;SDS011;64873;50.102;14.434;2022-11-15T13:59:16;48.40;;;25.73;;
76127;SDS011;64873;50.102;14.434;2022-11-15T14:01:51;49.20;;;24.92;;
76127;SDS011;64873;50.102;14.434;2022-11-15T14:04:18;53.28;;;25.63;;
76127;SDS011;64873;50.102;14.434;2022-11-15T14:06:48;43.80;;;23.17;;
76127;SDS011;64873;50.102;14.434;2022-11-15T14:09:51;46.15;;;22.33;;
76127;SDS011;64873;50.102;14.434;2022-11-15T14:12:22;49.47;;;23.80;;
76127;SDS011;64873;50.102;14.434;2022-11-15T14:14:58;44.85;;;23.35;;
76127;SDS011;64873;50.102;14.434;2022-11-15T14:19:53;44.20;;;22.90;;
76127;SDS011;64873;50.102;14.434;2022-11-15T14:22:23;46.28;;;24.27;;
76127;SDS011;64873;50.102;14.434;2022-11-15T14:27:38;50.55;;;23.15;;
76127;SDS011;64873;50.102;14.434;2022-11-15T14:30:04;45.50;;;21.80;;
76127;SDS011;64873;50.102;14.434;2022-11-15T14:32:37;46.35;;;22.35;;
76127;SDS011;64873;50.102;14.434;2022-11-15T14:35:21;42.17;;;19.88;;
76127;SDS011;64873;50.102;14.434;2022-11-15T14:37:48;40.50;;;20.98;;
76127;SDS011;64873;50.102;14.434;2022-11-15T14:40:18;41.25;;;22.73;;
76127;SDS011;64873;50.102;14.434;2022-11-15T14:42:46;48.58;;;21.95;;
76127;SDS011;64873;50.102;14.434;2022-11-15T14:45:21;41.90;;;21.60;;
76127;SDS011;64873;50.102;14.434;2022-11-15T14:47:47;46.85;;;22.02;;
76127;SDS011;64873;50.102;14.434;2022-11-15T14:50:17;44.63;;;22.02;;
76127;SDS011;64873;50.102;14.434;2022-11-15T14:52:44;41.92;;;21.25;;
76127;SDS011;64873;50.102;14.434;2022-11-15T14:55:15;45.80;;;21.52;;
76127;SDS011;64873;50.102;14.434;2022-11-15T14:57:42;45.03;;;20.90;;
76127;SDS011;64873;50.102;14.434;2022-11-15T15:00:07;45.67;;;20.92;;
76127;SDS011;64873;50.102;14.434;2022-11-15T15:02:34;52.45;;;24.13;;
76127;SDS011;64873;50.102;14.434;2022-11-15T15:05:00;45.72;;;22.38;;
76127;SDS011;64873;50.102;14.434;2022-11-15T15:07:28;47.20;;;23.05;;
76127;SDS011;64873;50.102;14.434;2022-11-15T15:09:53;41.13;;;21.98;;
76127;SDS011;64873;50.102;14.434;2022-11-15T15:12:20;45.60;;;22.00;;
76127;SDS011;64873;50.102;14.434;2022-11-15T15:14:46;49.35;;;23.75;;
76127;SDS011;64873;50.102;14.434;2022-11-15T15:17:13;47.42;;;23.25;;
76127;SDS011;64873;50.102;14.434;2022-11-15T15:19:39;52.15;;;25.05;;
76127;SDS011;64873;50.102;14.434;2022-11-15T15:22:05;50.15;;;24.77;;
76127;SDS011;64873;50.102;14.434;2022-11-15T15:24:30;49.53;;;24.38;;
76127;SDS011;64873;50.102;14.434;2022-11-15T15:26:56;58.28;;;24.10;;
76127;SDS011;64873;50.102;14.434;2022-11-15T15:29:21;47.47;;;22.55;;
76127;SDS011;64873;50.102;14.434;2022-11-15T15:31:47;59.33;;;24.17;;
76127;SDS011;64873;50.102;14.434;2022-11-15T15:34:12;48.92;;;23.52;;
76127;SDS011;64873;50.102;14.434;2022-11-15T15:36:37;48.75;;;24.33;;
76127;SDS011;64873;50.102;14.434;2022-11-15T15:39:03;51.63;;;24.63;;
76127;SDS011;64873;50.102;14.434;2022-11-15T15:41:28;50.47;;;23.17;;
76127;SDS011;64873;50.102;14.434;2022-11-15T15:43:53;51.88;;;24.13;;
76127;SDS011;64873;50.102;14.434;2022-11-15T15:46:19;47.63;;;23.98;;
76127;SDS011;64873;50.102;14.434;2022-11-15T15:48:45;45.85;;;23.20;;
76127;SDS011;64873;50.102;14.434;2022-11-15T15:51:11;57.50;;;26.60;;
76127;SDS011;64873;50.102;14.434;2022-11-15T15:53:36;46.05;;;22.85;;
76127;SDS011;64873;50.102;14.434;2022-11-15T15:56:02;52.13;;;23.58;;
76127;SDS011;64873;50.102;14.434;2022-11-15T15:58:28;58.85;;;26.05;;
76127;SDS011;64873;50.102;14.434;2022-11-15T16:00:53;43.92;;;21.27;;
76127;SDS011;64873;50.102;14.434;2022-11-15T16:03:19;43.72;;;21.70;;
76127;SDS011;64873;50.102;14.434;2022-11-15T16:05:44;43.45;;;20.75;;
76127;SDS011;64873;50.102;14.434;2022-11-15T16:08:20;41.00;;;18.50;;
76127;SDS011;64873;50.102;14.434;2022-11-15T16:10:47;37.47;;;19.00;;
76127;SDS011;64873;50.102;14.434;2022-11-15T16:13:13;44.55;;;22.35;;
76127;SDS011;64873;50.102;14.434;2022-11-15T16:15:39;41.47;;;20.15;;
76127;SDS011;64873;50.102;14.434;2022-11-15T16:18:04;44.15;;;19.05;;
76127;SDS011;64873;50.102;14.434;2022-11-15T16:23:08;32.55;;;16.50;;
76127;SDS011;64873;50.102;14.434;2022-11-15T16:25:40;32.13;;;16.55;;
76127;SDS011;64873;50.102;14.434;2022-11-15T16:28:14;29.63;;;15.35;;
76127;SDS011;64873;50.102;14.434;2022-11-15T16:30:41;34.22;;;17.60;;
76127;SDS011;64873;50.102;14.434;2022-11-15T16:33:06;33.00;;;17.55;;
76127;SDS011;64873;50.102;14.434;2022-11-15T16:35:31;32.58;;;17.83;;
76127;SDS011;64873;50.102;14.434;2022-11-15T16:37:57;36.08;;;17.15;;
76127;SDS011;64873;50.102;14.434;2022-11-15T16:40:24;33.90;;;16.90;;